sensor_id;sensor_type;location;lat;lon;timestamp;P1;durP1;ratioP1;P2;durP2;ratioP2
7957;SDS011;4024;52.172;5.378;2024-01-07T00:01:47;16.43;;;14.00;;
7957;SDS011;4024;52.172;5.378;2024-01-07T00:04:14;17.50;;;14.17;;
7957;SDS011;4024;52.172;5.378;2024-01-07T00:06:40;18.27;;;15.13;;
7957;SDS011;4024;52.172;5.378;2024-01-07T00:09:10;18.07;;;15.20;;
7957;SDS011;4024;52.172;5.378;2024-01-07T00:11:37;18.47;;;14.37;;
7957;SDS011;4024;52.172;5.378;2024-01-07T00:14:03;17.77;;;14.40;;
7957;SDS011;4024;52.172;5.378;2024-01-07T00:16:28;17.40;;;14.23;;
7957;SDS011;4024;52.172;5.378;2024-01-07T00:18:54;17.93;;;14.60;;
7957;SDS011;4024;52.172;5.378;2024-01-07T00:21:19;16.67;;;14.43;;
7957;SDS011;4024;52.172;5.378;2024-01-07T00:23:45;18.23;;;15.03;;
7957;SDS011;4024;52.172;5.378;2024-01-07T00:26:11;15.93;;;13.43;;
7957;SDS011;4024;52.172;5.378;2024-01-07T00:28:36;16.17;;;13.23;;
7957;SDS011;4024;52.172;5.378;2024-01-07T00:31:02;16.00;;;13.13;;
7957;SDS011;4024;52.172;5.378;2024-01-07T00:33:30;16.50;;;12.97;;
7957;SDS011;4024;52.172;5.378;2024-01-07T00:35:56;16.73;;;13.97;;
7957;SDS011;4024;52.172;5.378;2024-01-07T00:38:22;16.67;;;13.70;;
7957;SDS011;4024;52.172;5.378;2024-01-07T00:40:47;15.50;;;13.90;;
7957;SDS011;4024;52.172;5.378;2024-01-07T00:43:13;16.10;;;13.23;;
7957;SDS011;4024;52.172;5.378;2024-01-07T00:45:39;15.97;;;13.53;;
7957;SDS011;4024;52.172;5.378;2024-01-07T00:48:04;16.83;;;13.73;;
7957;SDS011;4024;52.172;5.378;2024-01-07T00:50:30;16.43;;;14.07;;
7957;SDS011;4024;52.172;5.378;2024-01-07T00:52:56;14.53;;;13.03;;
7957;SDS011;4024;52.172;5.378;2024-01-07T00:55:21;14.63;;;13.07;;
7957;SDS011;4024;52.172;5.378;2024-01-07T00:57:48;17.23;;;13.73;;
7957;SDS011;4024;52.172;5.378;2024-01-07T01:00:14;15.67;;;13.33;;
7957;SDS011;4024;52.172;5.378;2024-01-07T01:02:40;15.33;;;13.73;;
7957;SDS011;4024;52.172;5.378;2024-01-07T01:05:06;14.67;;;12.90;;
7957;SDS011;4024;52.172;5.378;2024-01-07T01:07:32;14.60;;;12.17;;
7957;SDS011;4024;52.172;5.378;2024-01-07T01:09:58;15.43;;;12.83;;
7957;SDS011;4024;52.172;5.378;2024-01-07T01:12:23;14.87;;;12.80;;
7957;SDS011;4024;52.172;5.378;2024-01-07T01:14:49;14.77;;;12.37;;
7957;SDS011;4024;52.172;5.378;2024-01-07T01:17:15;14.77;;;12.33;;
7957;SDS011;4024;52.172;5.378;2024-01-07T01:19:40;14.57;;;12.80;;
7957;SDS011;4024;52.172;5.378;2024-01-07T01:22:06;13.40;;;11.80;;
7957;SDS011;4024;52.172;5.378;2024-01-07T01:24:31;14.97;;;12.07;;
7957;SDS011;4024;52.172;5.378;2024-01-07T01:26:57;17.13;;;14.37;;
7957;SDS011;4024;52.172;5.378;2024-01-07T01:29:23;15.20;;;12.83;;
7957;SDS011;4024;52.172;5.378;2024-01-07T01:31:48;17.33;;;13.47;;
7957;SDS011;4024;52.172;5.378;2024-01-07T01:34:14;16.47;;;13.47;;
7957;SDS011;4024;52.172;5.378;2024-01-07T01:36:39;16.13;;;13.70;;
7957;SDS011;4024;52.172;5.378;2024-01-07T01:39:05;16.70;;;13.07;;
7957;SDS011;4024;52.172;5.378;2024-01-07T01:41:31;15.20;;;12.80;;
7957;SDS011;4024;52.172;5.378;2024-01-07T01:43:58;15.90;;;13.20;;
7957;SDS011;4024;52.172;5.378;2024-01-07T01:46:24;19.50;;;14.50;;
7957;SDS011;4024;52.172;5.378;2024-01-07T01:48:50;19.10;;;15.10;;
7957;SDS011;4024;52.172;5.378;2024-01-07T01:51:16;18.13;;;15.33;;
7957;SDS011;4024;52.172;5.378;2024-01-07T01:53:42;21.53;;;16.00;;
7957;SDS011;4024;52.172;5.378;2024-01-07T01:56:09;21.30;;;15.67;;
7957;SDS011;4024;52.172;5.378;2024-01-07T01:58:34;22.20;;;16.27;;
7957;SDS011;4024;52.172;5.378;2024-01-07T02:01:01;21.73;;;16.97;;
7957;SDS011;4024;52.172;5.378;2024-01-07T02:03:29;21.40;;;17.23;;
7957;SDS011;4024;52.172;5.378;2024-01-07T02:05:54;21.20;;;17.10;;
7957;SDS011;4024;52.172;5.378;2024-01-07T02:08:22;23.53;;;17.00;;
7957;SDS011;4024;52.172;5.378;2024-01-07T02:10:48;21.87;;;16.73;;
7957;SDS011;4024;52.172;5.378;2024-01-07T02:13:13;23.10;;;17.27;;
7957;SDS011;4024;52.172;5.378;2024-01-07T02:15:39;23.87;;;17.20;;
7957;SDS011;4024;52.172;5.378;2024-01-07T02:18:05;24.40;;;18.37;;
7957;SDS011;4024;52.172;5.378;2024-01-07T02:20:30;25.10;;;18.33;;
7957;SDS011;4024;52.172;5.378;2024-01-07T02:22:56;23.20;;;17.87;;
7957;SDS011;4024;52.172;5.378;2024-01-07T02:25:23;23.13;;;18.20;;
7957;SDS011;4024;52.172;5.378;2024-01-07T02:27:49;22.03;;;17.50;;
7957;SDS011;4024;52.172;5.378;2024-01-07T02:30:14;24.40;;;18.33;;
7957;SDS011;4024;52.172;5.378;2024-01-07T02:32:40;24.50;;;18.27;;
7957;SDS011;4024;52.172;5.378;2024-01-07T02:35:05;24.77;;;18.37;;
7957;SDS011;4024;52.172;5.378;2024-01-07T02:37:31;21.83;;;16.97;;
7957;SDS011;4024;52.172;5.378;2024-01-07T02:39:58;21.33;;;17.00;;
7957;SDS011;4024;52.172;5.378;2024-01-07T02:42:23;23.10;;;17.43;;
7957;SDS011;4024;52.172;5.378;2024-01-07T02:44:49;23.43;;;17.17;;
7957;SDS011;4024;52.172;5.378;2024-01-07T02:47:14;21.90;;;17.00;;
7957;SDS011;4024;52.172;5.378;2024-01-07T02:49:40;20.00;;;15.87;;
7957;SDS011;4024;52.172;5.378;2024-01-07T02:52:05;19.50;;;15.77;;
7957;SDS011;4024;52.172;5.378;2024-01-07T02:54:31;20.83;;;15.40;;
7957;SDS011;4024;52.172;5.378;2024-01-07T02:56:56;19.23;;;16.03;;
7957;SDS011;4024;52.172;5.378;2024-01-07T02:59:22;22.67;;;17.07;;
7957;SDS011;4024;52.172;5.378;2024-01-07T03:01:47;21.10;;;16.37;;
7957;SDS011;4024;52.172;5.378;2024-01-07T03:04:13;23.67;;;16.47;;
7957;SDS011;4024;52.172;5.378;2024-01-07T03:06:40;22.77;;;17.10;;
7957;SDS011;4024;52.172;5.378;2024-01-07T03:09:06;19.87;;;15.47;;
7957;SDS011;4024;52.172;5.378;2024-01-07T03:11:32;22.33;;;17.23;;
7957;SDS011;4024;52.172;5.378;2024-01-07T03:13:58;21.73;;;17.50;;
7957;SDS011;4024;52.172;5.378;2024-01-07T03:16:24;24.10;;;17.33;;
7957;SDS011;4024;52.172;5.378;2024-01-07T03:18:51;21.30;;;17.47;;
7957;SDS011;4024;52.172;5.378;2024-01-07T03:21:17;21.57;;;17.70;;
7957;SDS011;4024;52.172;5.378;2024-01-07T03:23:44;23.10;;;16.87;;
7957;SDS011;4024;52.172;5.378;2024-01-07T03:26:11;22.77;;;17.47;;
7957;SDS011;4024;52.172;5.378;2024-01-07T03:28:36;24.10;;;18.70;;
7957;SDS011;4024;52.172;5.378;2024-01-07T03:31:08;22.20;;;17.33;;
7957;SDS011;4024;52.172;5.378;2024-01-07T03:33:36;22.87;;;17.37;;
7957;SDS011;4024;52.172;5.378;2024-01-07T03:36:06;22.50;;;17.17;;
7957;SDS011;4024;52.172;5.378;2024-01-07T03:38:35;22.63;;;17.03;;
7957;SDS011;4024;52.172;5.378;2024-01-07T03:41:01;24.03;;;17.23;;
7957;SDS011;4024;52.172;5.378;2024-01-07T03:43:27;22.10;;;17.20;;
7957;SDS011;4024;52.172;5.378;2024-01-07T03:45:53;27.47;;;19.07;;
7957;SDS011;4024;52.172;5.378;2024-01-07T03:48:19;24.00;;;17.83;;
7957;SDS011;4024;52.172;5.378;2024-01-07T03:50:45;22.03;;;17.87;;
7957;SDS011;4024;52.172;5.378;2024-01-07T03:53:10;22.97;;;17.00;;
7957;SDS011;4024;52.172;5.378;2024-01-07T03:55:36;24.40;;;18.30;;
7957;SDS011;4024;52.172;5.378;2024-01-07T03:58:02;22.90;;;17.17;;
7957;SDS011;4024;52.172;5.378;2024-01-07T04:00:29;27.33;;;18.60;;
7957;SDS011;4024;52.172;5.378;2024-01-07T04:02:54;26.67;;;19.53;;
7957;SDS011;4024;52.172;5.378;2024-01-07T04:05:20;28.10;;;20.43;;
7957;SDS011;4024;52.172;5.378;2024-01-07T04:07:45;26.87;;;20.30;;
7957;SDS011;4024;52.172;5.378;2024-01-07T04:10:11;25.07;;;19.23;;
7957;SDS011;4024;52.172;5.378;2024-01-07T04:12:36;32.23;;;19.93;;
7957;SDS011;4024;52.172;5.378;2024-01-07T04:15:02;25.87;;;20.07;;
7957;SDS011;4024;52.172;5.378;2024-01-07T04:17:29;27.17;;;20.00;;
7957;SDS011;4024;52.172;5.378;2024-01-07T04:19:54;30.83;;;20.67;;
7957;SDS011;4024;52.172;5.378;2024-01-07T04:22:20;26.87;;;18.73;;
7957;SDS011;4024;52.172;5.378;2024-01-07T04:24:46;28.57;;;19.07;;
7957;SDS011;4024;52.172;5.378;2024-01-07T04:27:12;28.10;;;19.63;;
7957;SDS011;4024;52.172;5.378;2024-01-07T04:29:37;24.23;;;18.70;;
7957;SDS011;4024;52.172;5.378;2024-01-07T04:32:03;26.17;;;18.27;;
7957;SDS011;4024;52.172;5.378;2024-01-07T04:34:29;22.47;;;17.33;;
7957;SDS011;4024;52.172;5.378;2024-01-07T04:36:54;23.67;;;17.70;;
7957;SDS011;4024;52.172;5.378;2024-01-07T04:39:20;22.00;;;17.10;;
7957;SDS011;4024;52.172;5.378;2024-01-07T04:41:45;23.17;;;17.63;;
7957;SDS011;4024;52.172;5.378;2024-01-07T04:44:11;19.77;;;15.93;;
7957;SDS011;4024;52.172;5.378;2024-01-07T04:46:37;21.00;;;16.60;;
7957;SDS011;4024;52.172;5.378;2024-01-07T04:49:03;19.27;;;14.90;;
7957;SDS011;4024;52.172;5.378;2024-01-07T04:51:30;18.67;;;15.73;;
7957;SDS011;4024;52.172;5.378;2024-01-07T04:53:56;21.60;;;16.83;;
7957;SDS011;4024;52.172;5.378;2024-01-07T04:56:22;19.73;;;15.63;;
7957;SDS011;4024;52.172;5.378;2024-01-07T04:58:47;21.10;;;14.40;;
7957;SDS011;4024;52.172;5.378;2024-01-07T05:01:13;18.03;;;14.43;;
7957;SDS011;4024;52.172;5.378;2024-01-07T05:03:38;17.80;;;14.57;;
7957;SDS011;4024;52.172;5.378;2024-01-07T05:06:04;18.63;;;14.50;;
7957;SDS011;4024;52.172;5.378;2024-01-07T05:08:30;17.10;;;14.30;;
7957;SDS011;4024;52.172;5.378;2024-01-07T05:10:55;17.00;;;14.30;;
7957;SDS011;4024;52.172;5.378;2024-01-07T05:13:21;18.13;;;14.83;;
7957;SDS011;4024;52.172;5.378;2024-01-07T05:15:47;18.57;;;14.73;;
7957;SDS011;4024;52.172;5.378;2024-01-07T05:18:19;20.60;;;15.17;;
7957;SDS011;4024;52.172;5.378;2024-01-07T05:20:49;18.73;;;14.57;;
7957;SDS011;4024;52.172;5.378;2024-01-07T05:23:15;19.77;;;15.40;;
7957;SDS011;4024;52.172;5.378;2024-01-07T05:25:44;19.30;;;15.37;;
7957;SDS011;4024;52.172;5.378;2024-01-07T05:28:10;20.27;;;15.20;;
7957;SDS011;4024;52.172;5.378;2024-01-07T05:30:36;18.77;;;14.27;;
7957;SDS011;4024;52.172;5.378;2024-01-07T05:33:03;19.20;;;14.87;;
7957;SDS011;4024;52.172;5.378;2024-01-07T05:35:29;15.60;;;13.47;;
7957;SDS011;4024;52.172;5.378;2024-01-07T05:37:55;17.47;;;14.50;;
7957;SDS011;4024;52.172;5.378;2024-01-07T05:40:21;16.77;;;14.17;;
7957;SDS011;4024;52.172;5.378;2024-01-07T05:42:47;19.53;;;14.13;;
7957;SDS011;4024;52.172;5.378;2024-01-07T05:45:12;21.80;;;15.27;;
7957;SDS011;4024;52.172;5.378;2024-01-07T05:47:38;17.13;;;14.67;;
7957;SDS011;4024;52.172;5.378;2024-01-07T05:50:05;19.43;;;15.63;;
7957;SDS011;4024;52.172;5.378;2024-01-07T05:52:33;18.73;;;14.73;;
7957;SDS011;4024;52.172;5.378;2024-01-07T05:54:58;20.73;;;15.63;;
7957;SDS011;4024;52.172;5.378;2024-01-07T05:57:24;21.53;;;16.23;;
7957;SDS011;4024;52.172;5.378;2024-01-07T05:59:50;22.17;;;16.60;;
7957;SDS011;4024;52.172;5.378;2024-01-07T06:02:15;20.07;;;16.20;;
7957;SDS011;4024;52.172;5.378;2024-01-07T06:04:42;18.53;;;14.97;;
7957;SDS011;4024;52.172;5.378;2024-01-07T06:07:08;19.53;;;15.83;;
7957;SDS011;4024;52.172;5.378;2024-01-07T06:09:33;20.80;;;15.00;;
7957;SDS011;4024;52.172;5.378;2024-01-07T06:11:59;18.83;;;13.80;;
7957;SDS011;4024;52.172;5.378;2024-01-07T06:14:25;18.90;;;14.57;;
7957;SDS011;4024;52.172;5.378;2024-01-07T06:16:50;16.70;;;14.53;;
7957;SDS011;4024;52.172;5.378;2024-01-07T06:19:17;15.97;;;13.37;;
7957;SDS011;4024;52.172;5.378;2024-01-07T06:21:43;16.30;;;13.97;;
7957;SDS011;4024;52.172;5.378;2024-01-07T06:24:09;16.70;;;13.77;;
7957;SDS011;4024;52.172;5.378;2024-01-07T06:26:35;16.40;;;13.33;;
7957;SDS011;4024;52.172;5.378;2024-01-07T06:29:01;16.37;;;13.63;;
7957;SDS011;4024;52.172;5.378;2024-01-07T06:31:27;17.23;;;13.30;;
7957;SDS011;4024;52.172;5.378;2024-01-07T06:33:52;16.77;;;13.80;;
7957;SDS011;4024;52.172;5.378;2024-01-07T06:36:21;18.77;;;13.67;;
7957;SDS011;4024;52.172;5.378;2024-01-07T06:38:46;18.73;;;14.10;;
7957;SDS011;4024;52.172;5.378;2024-01-07T06:41:13;17.57;;;13.60;;
7957;SDS011;4024;52.172;5.378;2024-01-07T06:43:39;17.00;;;14.20;;
7957;SDS011;4024;52.172;5.378;2024-01-07T06:46:05;15.90;;;13.50;;
7957;SDS011;4024;52.172;5.378;2024-01-07T06:48:31;17.10;;;13.87;;
7957;SDS011;4024;52.172;5.378;2024-01-07T06:50:57;19.90;;;14.97;;
7957;SDS011;4024;52.172;5.378;2024-01-07T06:53:23;16.33;;;13.83;;
7957;SDS011;4024;52.172;5.378;2024-01-07T06:55:48;17.33;;;13.83;;
7957;SDS011;4024;52.172;5.378;2024-01-07T06:58:14;17.87;;;14.40;;
7957;SDS011;4024;52.172;5.378;2024-01-07T07:00:40;18.30;;;14.43;;
7957;SDS011;4024;52.172;5.378;2024-01-07T07:03:06;17.87;;;14.40;;
7957;SDS011;4024;52.172;5.378;2024-01-07T07:05:32;18.33;;;14.77;;
7957;SDS011;4024;52.172;5.378;2024-01-07T07:07:57;18.17;;;14.53;;
7957;SDS011;4024;52.172;5.378;2024-01-07T07:10:23;17.53;;;14.33;;
7957;SDS011;4024;52.172;5.378;2024-01-07T07:12:49;18.17;;;14.27;;
7957;SDS011;4024;52.172;5.378;2024-01-07T07:15:17;17.20;;;13.97;;
7957;SDS011;4024;52.172;5.378;2024-01-07T07:17:43;20.43;;;13.10;;
7957;SDS011;4024;52.172;5.378;2024-01-07T07:20:09;17.63;;;13.80;;
7957;SDS011;4024;52.172;5.378;2024-01-07T07:22:34;15.57;;;13.20;;
7957;SDS011;4024;52.172;5.378;2024-01-07T07:25:00;16.30;;;13.23;;
7957;SDS011;4024;52.172;5.378;2024-01-07T07:27:26;17.00;;;13.40;;
7957;SDS011;4024;52.172;5.378;2024-01-07T07:29:51;14.40;;;12.30;;
7957;SDS011;4024;52.172;5.378;2024-01-07T07:32:17;17.47;;;13.60;;
7957;SDS011;4024;52.172;5.378;2024-01-07T07:34:43;13.67;;;12.10;;
7957;SDS011;4024;52.172;5.378;2024-01-07T07:37:08;16.20;;;12.83;;
7957;SDS011;4024;52.172;5.378;2024-01-07T07:39:35;15.83;;;13.60;;
7957;SDS011;4024;52.172;5.378;2024-01-07T07:42:00;15.90;;;12.27;;
7957;SDS011;4024;52.172;5.378;2024-01-07T07:44:26;17.00;;;13.80;;
7957;SDS011;4024;52.172;5.378;2024-01-07T07:46:51;18.20;;;13.90;;
7957;SDS011;4024;52.172;5.378;2024-01-07T07:49:17;14.53;;;12.43;;
7957;SDS011;4024;52.172;5.378;2024-01-07T07:51:43;16.07;;;14.30;;
7957;SDS011;4024;52.172;5.378;2024-01-07T07:54:09;18.07;;;13.53;;
7957;SDS011;4024;52.172;5.378;2024-01-07T07:56:34;17.30;;;13.27;;
7957;SDS011;4024;52.172;5.378;2024-01-07T07:59:01;15.90;;;13.30;;
7957;SDS011;4024;52.172;5.378;2024-01-07T08:01:26;14.80;;;12.60;;
7957;SDS011;4024;52.172;5.378;2024-01-07T08:03:52;14.30;;;12.57;;
7957;SDS011;4024;52.172;5.378;2024-01-07T08:06:17;16.40;;;13.20;;
7957;SDS011;4024;52.172;5.378;2024-01-07T08:08:43;16.23;;;13.03;;
7957;SDS011;4024;52.172;5.378;2024-01-07T08:11:10;14.10;;;12.60;;
7957;SDS011;4024;52.172;5.378;2024-01-07T08:13:36;15.67;;;13.20;;
7957;SDS011;4024;52.172;5.378;2024-01-07T08:16:03;13.97;;;12.33;;
7957;SDS011;4024;52.172;5.378;2024-01-07T08:18:29;13.93;;;12.40;;
7957;SDS011;4024;52.172;5.378;2024-01-07T08:20:55;13.80;;;12.33;;
7957;SDS011;4024;52.172;5.378;2024-01-07T08:23:20;13.93;;;12.53;;
7957;SDS011;4024;52.172;5.378;2024-01-07T08:25:47;14.67;;;12.37;;
7957;SDS011;4024;52.172;5.378;2024-01-07T08:28:13;13.70;;;12.20;;
7957;SDS011;4024;52.172;5.378;2024-01-07T08:30:39;13.90;;;12.40;;
7957;SDS011;4024;52.172;5.378;2024-01-07T08:33:04;14.93;;;12.83;;
7957;SDS011;4024;52.172;5.378;2024-01-07T08:35:30;14.00;;;12.30;;
7957;SDS011;4024;52.172;5.378;2024-01-07T08:37:56;12.93;;;11.33;;
7957;SDS011;4024;52.172;5.378;2024-01-07T08:40:21;14.77;;;11.73;;
7957;SDS011;4024;52.172;5.378;2024-01-07T08:42:47;14.07;;;11.60;;
7957;SDS011;4024;52.172;5.378;2024-01-07T08:45:12;15.23;;;11.37;;
7957;SDS011;4024;52.172;5.378;2024-01-07T08:47:38;12.57;;;10.57;;
7957;SDS011;4024;52.172;5.378;2024-01-07T08:50:05;12.80;;;10.73;;
7957;SDS011;4024;52.172;5.378;2024-01-07T08:52:30;11.67;;;9.73;;
7957;SDS011;4024;52.172;5.378;2024-01-07T08:54:56;13.50;;;10.70;;
7957;SDS011;4024;52.172;5.378;2024-01-07T08:57:21;13.27;;;10.70;;
7957;SDS011;4024;52.172;5.378;2024-01-07T08:59:47;13.47;;;10.27;;
7957;SDS011;4024;52.172;5.378;2024-01-07T09:02:13;13.77;;;11.23;;
7957;SDS011;4024;52.172;5.378;2024-01-07T09:04:39;13.60;;;11.27;;
7957;SDS011;4024;52.172;5.378;2024-01-07T09:07:04;14.07;;;11.40;;
7957;SDS011;4024;52.172;5.378;2024-01-07T09:09:30;13.30;;;10.07;;
7957;SDS011;4024;52.172;5.378;2024-01-07T09:11:55;13.90;;;11.10;;
7957;SDS011;4024;52.172;5.378;2024-01-07T09:14:22;14.87;;;11.57;;
7957;SDS011;4024;52.172;5.378;2024-01-07T09:16:50;16.23;;;10.73;;
7957;SDS011;4024;52.172;5.378;2024-01-07T09:19:15;15.43;;;11.43;;
7957;SDS011;4024;52.172;5.378;2024-01-07T09:21:42;13.00;;;10.40;;
7957;SDS011;4024;52.172;5.378;2024-01-07T09:24:08;12.00;;;10.53;;
7957;SDS011;4024;52.172;5.378;2024-01-07T09:26:34;13.10;;;10.70;;
7957;SDS011;4024;52.172;5.378;2024-01-07T09:28:59;11.47;;;10.07;;
7957;SDS011;4024;52.172;5.378;2024-01-07T09:31:26;13.17;;;11.23;;
7957;SDS011;4024;52.172;5.378;2024-01-07T09:33:52;15.57;;;10.83;;
7957;SDS011;4024;52.172;5.378;2024-01-07T09:36:17;12.53;;;10.03;;
7957;SDS011;4024;52.172;5.378;2024-01-07T09:38:43;13.60;;;10.87;;
7957;SDS011;4024;52.172;5.378;2024-01-07T09:41:09;12.77;;;10.03;;
7957;SDS011;4024;52.172;5.378;2024-01-07T09:43:35;13.50;;;9.73;;
7957;SDS011;4024;52.172;5.378;2024-01-07T09:46:02;11.90;;;9.63;;
7957;SDS011;4024;52.172;5.378;2024-01-07T09:48:28;12.03;;;9.60;;
7957;SDS011;4024;52.172;5.378;2024-01-07T09:50:55;10.23;;;8.43;;
7957;SDS011;4024;52.172;5.378;2024-01-07T09:53:23;9.43;;;7.97;;
7957;SDS011;4024;52.172;5.378;2024-01-07T09:58:45;12.10;;;8.03;;
7957;SDS011;4024;52.172;5.378;2024-01-07T10:01:13;9.53;;;7.70;;
7957;SDS011;4024;52.172;5.378;2024-01-07T10:03:38;9.00;;;7.30;;
7957;SDS011;4024;52.172;5.378;2024-01-07T10:06:04;10.47;;;7.47;;
7957;SDS011;4024;52.172;5.378;2024-01-07T10:08:30;10.50;;;7.50;;
7957;SDS011;4024;52.172;5.378;2024-01-07T10:10:56;10.53;;;7.03;;
7957;SDS011;4024;52.172;5.378;2024-01-07T10:13:23;8.43;;;6.90;;
7957;SDS011;4024;52.172;5.378;2024-01-07T10:15:48;8.97;;;7.07;;
7957;SDS011;4024;52.172;5.378;2024-01-07T10:18:14;9.63;;;7.00;;
7957;SDS011;4024;52.172;5.378;2024-01-07T10:20:40;8.40;;;6.77;;
7957;SDS011;4024;52.172;5.378;2024-01-07T10:23:05;8.60;;;6.07;;
7957;SDS011;4024;52.172;5.378;2024-01-07T10:25:33;8.60;;;5.93;;
7957;SDS011;4024;52.172;5.378;2024-01-07T10:28:00;8.67;;;6.33;;
7957;SDS011;4024;52.172;5.378;2024-01-07T10:30:26;8.93;;;5.87;;
7957;SDS011;4024;52.172;5.378;2024-01-07T10:32:57;8.33;;;6.00;;
7957;SDS011;4024;52.172;5.378;2024-01-07T10:35:26;7.87;;;5.80;;
7957;SDS011;4024;52.172;5.378;2024-01-07T10:38:01;8.40;;;5.40;;
7957;SDS011;4024;52.172;5.378;2024-01-07T10:40:27;7.73;;;6.07;;
7957;SDS011;4024;52.172;5.378;2024-01-07T10:42:56;7.40;;;4.83;;
7957;SDS011;4024;52.172;5.378;2024-01-07T10:45:23;5.33;;;4.83;;
7957;SDS011;4024;52.172;5.378;2024-01-07T10:47:49;8.00;;;5.40;;
7957;SDS011;4024;52.172;5.378;2024-01-07T10:50:18;5.60;;;5.00;;
7957;SDS011;4024;52.172;5.378;2024-01-07T10:52:57;6.03;;;4.93;;
7957;SDS011;4024;52.172;5.378;2024-01-07T10:55:27;6.67;;;4.87;;
7957;SDS011;4024;52.172;5.378;2024-01-07T10:57:58;6.63;;;5.03;;
7957;SDS011;4024;52.172;5.378;2024-01-07T11:00:26;5.00;;;4.50;;
7957;SDS011;4024;52.172;5.378;2024-01-07T11:05:39;5.60;;;5.00;;
7957;SDS011;4024;52.172;5.378;2024-01-07T11:08:22;5.93;;;4.63;;
7957;SDS011;4024;52.172;5.378;2024-01-07T11:11:09;6.80;;;5.50;;
7957;SDS011;4024;52.172;5.378;2024-01-07T11:13:46;5.80;;;5.03;;
7957;SDS011;4024;52.172;5.378;2024-01-07T11:16:11;6.27;;;4.93;;
7957;SDS011;4024;52.172;5.378;2024-01-07T11:18:38;6.00;;;5.00;;
7957;SDS011;4024;52.172;5.378;2024-01-07T11:21:05;6.33;;;4.90;;
7957;SDS011;4024;52.172;5.378;2024-01-07T11:23:32;6.13;;;4.50;;
7957;SDS011;4024;52.172;5.378;2024-01-07T11:26:02;5.30;;;4.50;;
7957;SDS011;4024;52.172;5.378;2024-01-07T11:31:16;4.87;;;4.37;;
7957;SDS011;4024;52.172;5.378;2024-01-07T11:33:43;4.03;;;3.63;;
7957;SDS011;4024;52.172;5.378;2024-01-07T11:36:16;4.27;;;3.87;;
7957;SDS011;4024;52.172;5.378;2024-01-07T11:38:43;5.50;;;4.10;;
7957;SDS011;4024;52.172;5.378;2024-01-07T11:41:09;4.97;;;4.20;;
7957;SDS011;4024;52.172;5.378;2024-01-07T11:43:37;3.50;;;3.20;;
7957;SDS011;4024;52.172;5.378;2024-01-07T11:46:03;6.23;;;4.37;;
7957;SDS011;4024;52.172;5.378;2024-01-07T11:48:28;4.07;;;3.63;;
7957;SDS011;4024;52.172;5.378;2024-01-07T11:50:54;5.90;;;3.83;;
7957;SDS011;4024;52.172;5.378;2024-01-07T11:53:20;5.00;;;3.30;;
7957;SDS011;4024;52.172;5.378;2024-01-07T11:55:46;4.10;;;3.37;;
7957;SDS011;4024;52.172;5.378;2024-01-07T11:58:11;4.03;;;3.50;;
7957;SDS011;4024;52.172;5.378;2024-01-07T12:00:37;6.03;;;3.67;;
7957;SDS011;4024;52.172;5.378;2024-01-07T12:03:03;4.73;;;3.07;;
7957;SDS011;4024;52.172;5.378;2024-01-07T12:05:29;3.70;;;3.27;;
7957;SDS011;4024;52.172;5.378;2024-01-07T12:07:55;4.33;;;3.53;;
7957;SDS011;4024;52.172;5.378;2024-01-07T12:10:22;4.73;;;3.30;;
7957;SDS011;4024;52.172;5.378;2024-01-07T12:12:48;3.87;;;3.00;;
7957;SDS011;4024;52.172;5.378;2024-01-07T12:15:16;3.77;;;3.10;;
7957;SDS011;4024;52.172;5.378;2024-01-07T12:17:47;4.70;;;3.50;;
7957;SDS011;4024;52.172;5.378;2024-01-07T12:20:21;4.40;;;3.30;;
7957;SDS011;4024;52.172;5.378;2024-01-07T12:22:46;6.53;;;3.33;;
7957;SDS011;4024;52.172;5.378;2024-01-07T12:25:12;3.80;;;3.00;;
7957;SDS011;4024;52.172;5.378;2024-01-07T12:27:40;4.30;;;3.20;;
7957;SDS011;4024;52.172;5.378;2024-01-07T12:30:06;4.80;;;2.80;;
7957;SDS011;4024;52.172;5.378;2024-01-07T12:32:32;4.10;;;3.27;;
7957;SDS011;4024;52.172;5.378;2024-01-07T12:34:58;3.53;;;3.10;;
7957;SDS011;4024;52.172;5.378;2024-01-07T12:37:27;4.37;;;3.17;;
7957;SDS011;4024;52.172;5.378;2024-01-07T12:39:54;3.30;;;3.00;;
7957;SDS011;4024;52.172;5.378;2024-01-07T12:42:19;5.47;;;2.97;;
7957;SDS011;4024;52.172;5.378;2024-01-07T12:44:47;3.27;;;2.93;;
7957;SDS011;4024;52.172;5.378;2024-01-07T12:47:13;3.70;;;3.30;;
7957;SDS011;4024;52.172;5.378;2024-01-07T12:49:39;3.17;;;2.93;;
7957;SDS011;4024;52.172;5.378;2024-01-07T12:52:05;3.37;;;3.07;;
7957;SDS011;4024;52.172;5.378;2024-01-07T12:54:30;5.43;;;2.57;;
7957;SDS011;4024;52.172;5.378;2024-01-07T12:56:56;3.83;;;2.97;;
7957;SDS011;4024;52.172;5.378;2024-01-07T12:59:22;5.13;;;4.20;;
7957;SDS011;4024;52.172;5.378;2024-01-07T13:01:47;3.57;;;2.80;;
7957;SDS011;4024;52.172;5.378;2024-01-07T13:04:15;3.80;;;3.17;;
7957;SDS011;4024;52.172;5.378;2024-01-07T13:06:41;3.60;;;2.77;;
7957;SDS011;4024;52.172;5.378;2024-01-07T13:09:07;2.93;;;2.60;;
7957;SDS011;4024;52.172;5.378;2024-01-07T13:11:34;3.73;;;2.60;;
7957;SDS011;4024;52.172;5.378;2024-01-07T13:14:00;3.57;;;2.90;;
7957;SDS011;4024;52.172;5.378;2024-01-07T13:16:26;2.70;;;2.50;;
7957;SDS011;4024;52.172;5.378;2024-01-07T13:18:52;3.17;;;2.70;;
7957;SDS011;4024;52.172;5.378;2024-01-07T13:21:18;3.70;;;2.70;;
7957;SDS011;4024;52.172;5.378;2024-01-07T13:23:45;3.80;;;2.80;;
7957;SDS011;4024;52.172;5.378;2024-01-07T13:26:11;2.90;;;2.60;;
7957;SDS011;4024;52.172;5.378;2024-01-07T13:28:37;3.90;;;2.80;;
7957;SDS011;4024;52.172;5.378;2024-01-07T13:31:03;2.93;;;2.43;;
7957;SDS011;4024;52.172;5.378;2024-01-07T13:33:29;2.67;;;2.43;;
7957;SDS011;4024;52.172;5.378;2024-01-07T13:35:56;3.83;;;2.87;;
7957;SDS011;4024;52.172;5.378;2024-01-07T13:38:21;3.83;;;2.73;;
7957;SDS011;4024;52.172;5.378;2024-01-07T13:40:47;2.80;;;2.47;;
7957;SDS011;4024;52.172;5.378;2024-01-07T13:43:13;2.73;;;2.40;;
7957;SDS011;4024;52.172;5.378;2024-01-07T13:45:38;4.70;;;2.43;;
7957;SDS011;4024;52.172;5.378;2024-01-07T13:48:07;3.10;;;2.70;;
7957;SDS011;4024;52.172;5.378;2024-01-07T13:50:32;3.50;;;2.60;;
7957;SDS011;4024;52.172;5.378;2024-01-07T13:52:58;3.77;;;2.57;;
7957;SDS011;4024;52.172;5.378;2024-01-07T13:55:24;4.83;;;2.70;;
7957;SDS011;4024;52.172;5.378;2024-01-07T13:57:50;2.80;;;2.50;;
7957;SDS011;4024;52.172;5.378;2024-01-07T14:00:15;2.53;;;2.20;;
7957;SDS011;4024;52.172;5.378;2024-01-07T14:02:43;4.03;;;2.70;;
7957;SDS011;4024;52.172;5.378;2024-01-07T14:05:12;4.00;;;2.37;;
7957;SDS011;4024;52.172;5.378;2024-01-07T14:07:38;5.33;;;2.90;;
7957;SDS011;4024;52.172;5.378;2024-01-07T14:10:04;2.60;;;2.40;;
7957;SDS011;4024;52.172;5.378;2024-01-07T14:12:31;3.80;;;2.70;;
7957;SDS011;4024;52.172;5.378;2024-01-07T14:14:57;4.30;;;2.60;;
7957;SDS011;4024;52.172;5.378;2024-01-07T14:17:26;4.90;;;2.70;;
7957;SDS011;4024;52.172;5.378;2024-01-07T14:19:52;5.50;;;2.90;;
7957;SDS011;4024;52.172;5.378;2024-01-07T14:22:21;5.33;;;3.27;;
7957;SDS011;4024;52.172;5.378;2024-01-07T14:24:47;4.20;;;3.00;;
7957;SDS011;4024;52.172;5.378;2024-01-07T14:27:16;3.23;;;2.60;;
7957;SDS011;4024;52.172;5.378;2024-01-07T14:29:42;7.20;;;2.80;;
7957;SDS011;4024;52.172;5.378;2024-01-07T14:32:08;4.43;;;3.03;;
7957;SDS011;4024;52.172;5.378;2024-01-07T14:34:34;3.60;;;3.10;;
7957;SDS011;4024;52.172;5.378;2024-01-07T14:37:04;7.00;;;4.57;;
7957;SDS011;4024;52.172;5.378;2024-01-07T14:39:29;3.17;;;2.40;;
7957;SDS011;4024;52.172;5.378;2024-01-07T14:41:55;4.17;;;2.40;;
7957;SDS011;4024;52.172;5.378;2024-01-07T14:44:20;4.73;;;3.03;;
7957;SDS011;4024;52.172;5.378;2024-01-07T14:46:46;3.40;;;2.57;;
7957;SDS011;4024;52.172;5.378;2024-01-07T14:49:12;8.13;;;3.20;;
7957;SDS011;4024;52.172;5.378;2024-01-07T14:51:37;4.40;;;3.10;;
7957;SDS011;4024;52.172;5.378;2024-01-07T14:54:03;3.87;;;3.43;;
7957;SDS011;4024;52.172;5.378;2024-01-07T14:56:28;4.60;;;3.20;;
7957;SDS011;4024;52.172;5.378;2024-01-07T14:58:54;4.17;;;3.17;;
7957;SDS011;4024;52.172;5.378;2024-01-07T15:01:20;3.27;;;3.03;;